Time;durP1;ratioP1;P1;durP2;ratioP2;P2;SDS_P1;SDS_P2;PMS_P1;PMS_P2;Temp;Humidity;BMP_temperature;BMP_pressure;BME280_temperature;BME280_humidity;BME280_pressure;Samples;Min_cycle;Max_cycle;Signal;HPM_P1;HPM_P2
2022/11/06 00:00:38;;;;;;;36.30;23.60;;;;;;;14.98;71.72;94406.34;5070925;28;20534;-78
2022/11/06 00:03:05;;;;;;;34.33;23.47;;;;;;;14.97;71.46;94410.78;5074817;28;20851;-78
2022/11/06 00:08:27;;;;;;;32.87;22.37;;;;;;;14.98;70.89;94414.25;5074952;28;20459;-78
2022/11/06 00:10:56;;;;;;;32.53;22.57;;;;;;;14.95;71.05;94415.44;5075112;28;20448;-78
2022/11/06 00:13:22;;;;;;;28.80;20.30;;;;;;;14.93;70.90;94412.13;5056005;28;20452;-78
2022/11/06 00:15:49;;;;;;;34.47;21.27;;;;;;;14.89;71.50;94410.81;5074989;28;20436;-78
2022/11/06 00:18:16;;;;;;;29.93;20.20;;;;;;;14.81;71.34;94406.38;5039770;28;20807;-78
2022/11/06 00:20:43;;;;;;;35.33;20.23;;;;;;;14.80;70.83;94417.13;5039200;28;20484;-79
2022/11/06 00:23:10;;;;;;;32.20;20.40;;;;;;;14.77;70.61;94413.00;5074706;28;20449;-79
2022/11/06 00:25:40;;;;;;;40.70;20.60;;;;;;;14.73;70.76;94416.13;5074725;28;20854;-78
2022/11/06 00:28:08;;;;;;;29.63;19.93;;;;;;;14.69;70.78;94412.97;5074352;28;20449;-79
2022/11/06 00:30:35;;;;;;;33.23;19.53;;;;;;;14.68;71.18;94406.06;5074465;28;20445;-79
2022/11/06 00:33:02;;;;;;;30.80;19.93;;;;;;;14.66;71.23;94412.50;5074699;28;20445;-78
2022/11/06 00:35:29;;;;;;;33.80;19.50;;;;;;;14.54;71.22;94410.22;5074420;28;20460;-78
2022/11/06 00:37:56;;;;;;;37.93;21.33;;;;;;;14.51;71.41;94405.25;5074368;28;20951;-78
2022/11/06 00:40:22;;;;;;;31.67;21.60;;;;;;;14.48;71.47;94418.78;5074433;28;20515;-78
2022/11/06 00:42:53;;;;;;;36.10;21.67;;;;;;;14.44;71.69;94403.44;5074528;28;20968;-78
2022/11/06 00:45:22;;;;;;;34.67;21.00;;;;;;;14.42;71.72;94408.84;5074411;28;20515;-78
2022/11/06 00:47:48;;;;;;;40.07;23.60;;;;;;;14.38;71.90;94417.25;5074674;28;20437;-78
2022/11/06 00:50:16;;;;;;;41.40;22.93;;;;;;;14.37;72.08;94418.25;5074343;28;20456;-78
2022/11/06 00:52:43;;;;;;;33.00;20.53;;;;;;;14.34;71.92;94408.84;5073943;28;20472;-78
2022/11/06 00:55:10;;;;;;;27.53;18.87;;;;;;;14.35;72.09;94409.66;5073636;28;20444;-78
2022/11/06 00:57:37;;;;;;;35.07;21.40;;;;;;;14.28;72.09;94409.50;5074406;28;20445;-78
2022/11/06 01:00:06;;;;;;;29.70;20.60;;;;;;;14.27;72.25;94400.78;5073975;28;20990;-79
2022/11/06 01:02:34;;;;;;;28.93;20.10;;;;;;;14.24;72.45;94409.03;5039103;28;20870;-78
2022/11/06 01:05:01;;;;;;;32.17;18.60;;;;;;;14.22;72.21;94408.38;5073894;28;20526;-79
2022/11/06 01:07:27;;;;;;;27.53;18.13;;;;;;;14.17;72.50;94400.13;5074256;28;20441;-79
2022/11/06 01:09:54;;;;;;;32.77;19.37;;;;;;;14.17;72.78;94401.94;5073868;28;20904;-78
2022/11/06 01:12:21;;;;;;;26.27;17.93;;;;;;;14.16;73.21;94405.53;5073505;28;20498;-79
2022/11/06 01:14:48;;;;;;;25.43;17.23;;;;;;;14.12;73.37;94399.75;5073867;28;20460;-78
2022/11/06 01:17:14;;;;;;;21.80;17.00;;;;;;;14.06;73.56;94392.50;5073812;28;20923;-78
2022/11/06 01:19:42;;;;;;;25.10;17.53;;;;;;;14.01;73.74;94391.34;5073731;28;20828;-78
2022/11/06 01:22:09;;;;;;;26.53;18.03;;;;;;;13.97;73.94;94396.13;5073469;28;20471;-78
2022/11/06 01:24:36;;;;;;;26.87;18.33;;;;;;;13.91;74.34;94399.41;5038351;28;20937;-78
2022/11/06 01:27:03;;;;;;;26.23;18.07;;;;;;;13.90;74.07;94403.03;5038652;28;20444;-79
2022/11/06 01:29:30;;;;;;;26.13;17.67;;;;;;;13.92;74.40;94395.78;5073359;28;20967;-79
2022/11/06 01:31:57;;;;;;;25.37;18.87;;;;;;;13.82;74.32;94393.28;5073530;28;20436;-78
2022/11/06 01:34:24;;;;;;;20.90;16.50;;;;;;;13.78;74.19;94394.59;5073365;28;20440;-78
2022/11/06 01:36:52;;;;;;;27.13;17.00;;;;;;;13.75;74.59;94391.47;5073316;28;20449;-78
2022/11/06 01:39:19;;;;;;;28.57;18.57;;;;;;;13.74;74.91;94381.91;5054259;28;20433;-79
2022/11/06 01:41:48;;;;;;;27.87;18.23;;;;;;;13.75;74.91;94391.47;5073491;28;20448;-78
2022/11/06 01:44:52;;;;;;;25.67;18.00;;;;;;;13.75;75.46;94404.66;5073302;28;20807;-78
2022/11/06 01:47:21;;;;;;;25.73;17.80;;;;;;;13.75;75.23;94394.91;5073325;28;20447;-78
2022/11/06 01:49:49;;;;;;;26.53;18.43;;;;;;;13.73;75.37;94394.25;5073473;28;20506;-79
2022/11/06 01:52:19;;;;;;;27.83;17.60;;;;;;;13.74;75.57;94392.44;5072951;28;20469;-79
2022/11/06 01:54:48;;;;;;;31.00;17.10;;;;;;;13.74;75.61;94385.38;5073259;28;20468;-78
2022/11/06 01:57:15;;;;;;;23.37;16.70;;;;;;;13.75;75.23;94387.00;5072924;28;20502;-79
2022/11/06 01:59:45;;;;;;;26.07;16.83;;;;;;;13.77;74.95;94389.47;5072625;28;20488;-78
2022/11/06 02:02:14;;;;;;;33.47;19.57;;;;;;;13.71;75.34;94383.06;5072706;28;20857;-79
2022/11/06 02:04:44;;;;;;;30.43;17.13;;;;;;;13.59;75.57;94395.72;5072288;28;20481;-80
2022/11/06 02:07:12;;;;;;;25.83;18.17;;;;;;;13.64;75.26;94393.44;5072611;28;20441;-78
2022/11/06 02:09:40;;;;;;;33.50;18.07;;;;;;;13.64;75.64;94392.59;5072817;28;20440;-78
2022/11/06 02:12:16;;;;;;;30.70;18.53;;;;;;;13.66;75.74;94397.72;5072860;28;20445;-78
2022/11/06 02:14:59;;;;;;;26.40;16.67;;;;;;;13.64;76.23;94388.16;5072782;28;20870;-78
2022/11/06 02:17:34;;;;;;;24.80;17.03;;;;;;;13.63;75.66;94390.94;5041387;28;20519;-78
2022/11/06 02:20:10;;;;;;;26.03;16.17;;;;;;;13.63;76.28;94391.78;5072618;28;20484;-78
2022/11/06 02:22:52;;;;;;;20.40;15.23;;;;;;;13.61;75.87;94393.75;5072688;28;20444;-79
2022/11/06 02:25:34;;;;;;;25.90;14.90;;;;;;;13.64;76.04;94395.25;5072282;28;20445;-78
2022/11/06 02:28:09;;;;;;;21.60;15.17;;;;;;;13.67;76.12;94396.72;5072476;28;20451;-79
2022/11/06 02:30:42;;;;;;;21.93;13.90;;;;;;;13.69;75.99;94389.47;5072483;28;20860;-78
2022/11/06 02:33:14;;;;;;;24.77;15.20;;;;;;;13.73;76.00;94390.81;5072249;28;20502;-78
2022/11/06 02:35:46;;;;;;;20.17;16.07;;;;;;;13.76;76.19;94388.66;5072234;28;20449;-78
2022/11/06 02:38:17;;;;;;;27.00;17.10;;;;;;;13.83;75.89;94394.09;5072414;28;20468;-80
2022/11/06 02:40:49;;;;;;;21.40;12.97;;;;;;;13.88;76.42;94390.03;5072169;28;20484;-79
2022/11/06 02:43:19;;;;;;;20.90;13.80;;;;;;;13.86;77.48;94391.97;5071959;28;20440;-79
2022/11/06 02:45:50;;;;;;;23.20;14.67;;;;;;;13.98;76.56;94383.75;5072115;28;20444;-79
2022/11/06 02:48:24;;;;;;;17.50;13.17;;;;;;;13.99;76.71;94391.50;5072011;28;20466;-78
2022/11/06 02:50:54;;;;;;;16.97;11.90;;;;;;;14.04;77.06;94391.00;5072332;28;20437;-78
2022/11/06 02:53:25;;;;;;;17.40;11.67;;;;;;;14.07;77.53;94401.25;5072059;28;20469;-79
2022/11/06 02:55:56;;;;;;;15.60;10.90;;;;;;;14.08;77.95;94409.00;5071884;28;20532;-79
2022/11/06 02:58:31;;;;;;;23.83;11.27;;;;;;;14.13;78.28;94409.31;5071915;28;20432;-78
2022/11/06 03:01:04;;;;;;;19.47;11.67;;;;;;;14.15;78.34;94419.72;5071980;28;20487;-79
2022/11/06 03:03:35;;;;;;;18.00;12.10;;;;;;;14.15;78.68;94417.91;5071864;28;20456;-79
2022/11/06 03:06:07;;;;;;;12.50;9.90;;;;;;;14.10;79.27;94417.56;5071957;28;20452;-79
2022/11/06 03:08:39;;;;;;;17.67;10.80;;;;;;;14.12;79.67;94415.59;5071853;28;20491;-79
2022/11/06 03:11:14;;;;;;;15.50;10.03;;;;;;;14.23;79.87;94417.09;5071815;28;20452;-79
2022/11/06 03:13:51;;;;;;;17.53;11.33;;;;;;;14.31;79.34;94422.38;5072026;28;20475;-79
2022/11/06 03:16:28;;;;;;;18.00;10.40;;;;;;;14.22;79.25;94421.56;5072365;28;20477;-78
2022/11/06 03:19:02;;;;;;;19.17;11.87;;;;;;;14.34;79.03;94419.41;5076096;28;20440;-79
2022/11/06 03:21:36;;;;;;;16.70;11.47;;;;;;;14.35;78.68;94414.94;5075964;28;20483;-78
2022/11/06 03:24:10;;;;;;;13.33;11.00;;;;;;;14.34;78.99;94427.31;5076024;28;20952;-78
2022/11/06 03:26:41;;;;;;;12.47;10.87;;;;;;;14.30;80.09;94419.91;5075945;28;20447;-78
2022/11/06 03:29:14;;;;;;;16.23;10.13;;;;;;;14.30;80.15;94425.19;5075819;28;20486;-78
2022/11/06 03:31:50;;;;;;;14.77;11.10;;;;;;;14.30;80.08;94433.09;5056578;28;20880;-79
2022/11/06 03:34:24;;;;;;;17.60;10.73;;;;;;;14.13;80.73;94427.78;5041107;28;20456;-78
2022/11/06 03:36:57;;;;;;;16.00;10.87;;;;;;;14.23;81.22;94428.47;5075641;28;20455;-79
2022/11/06 03:39:30;;;;;;;11.97;9.83;;;;;;;14.32;80.86;94431.94;5075724;28;20448;-79
2022/11/06 03:42:03;;;;;;;18.07;11.03;;;;;;;14.35;81.15;94436.06;5075588;28;20481;-79
2022/11/06 03:44:33;;;;;;;15.70;11.30;;;;;;;14.43;80.49;94433.44;5040045;28;20444;-78
2022/11/06 03:47:07;;;;;;;16.73;11.63;;;;;;;14.45;80.21;94428.84;5075372;28;20449;-79
2022/11/06 03:49:39;;;;;;;18.43;10.50;;;;;;;14.42;79.44;94434.41;5075676;28;20451;-78
2022/11/06 03:52:10;;;;;;;17.60;12.43;;;;;;;14.21;80.84;94432.28;5075323;28;20513;-78
2022/11/06 03:54:43;;;;;;;17.97;11.33;;;;;;;14.01;81.96;94420.38;5075247;28;20456;-78
2022/11/06 03:57:13;;;;;;;16.13;10.00;;;;;;;13.55;84.19;94428.63;5075283;28;20448;-79
2022/11/06 03:59:46;;;;;;;31.17;16.13;;;;;;;13.62;83.87;94427.03;5075057;28;20441;-79
2022/11/06 04:02:16;;;;;;;16.73;11.23;;;;;;;13.29;85.52;94423.41;5074974;28;20452;-78
2022/11/06 04:04:47;;;;;;;14.73;10.60;;;;;;;13.25;85.53;94430.00;5075722;28;20479;-78
2022/11/06 04:07:17;;;;;;;17.53;12.13;;;;;;;13.12;85.80;94426.94;5074958;28;20464;-78
2022/11/06 04:15:25;;;;;;;16.50;10.20;;;;;;;13.01;88.27;94433.31;5074980;28;20420;-78
2022/11/06 04:17:52;;;;;;;15.23;11.97;;;;;;;13.00;89.28;94436.06;5074716;28;20506;-78
2022/11/06 04:23:13;;;;;;;15.33;9.90;;;;;;;12.83;90.17;94440.44;5045384;28;20480;-80
2022/11/06 04:28:48;;;;;;;17.80;11.13;;;;;;;12.59;92.42;94438.47;5073712;28;20446;-81
2022/11/06 04:31:22;;;;;;;16.30;11.13;;;;;;;12.49;93.51;94429.00;5074279;28;20452;-79
2022/11/06 04:33:58;;;;;;;24.73;11.43;;;;;;;12.53;93.44;94443.50;5074695;28;20938;-79
2022/11/06 04:36:37;;;;;;;25.73;12.10;;;;;;;12.59;94.09;94442.91;5074178;28;20510;-79
2022/11/06 04:39:10;;;;;;;16.90;10.90;;;;;;;12.52;94.96;94444.50;5056895;28;20456;-78
2022/11/06 04:41:42;;;;;;;19.77;11.93;;;;;;;12.60;94.82;94439.28;5075080;28;20498;-78
2022/11/06 04:44:14;;;;;;;19.07;12.83;;;;;;;12.50;96.31;94436.75;5074910;28;20455;-78
2022/11/06 04:46:47;;;;;;;23.63;12.60;;;;;;;12.58;95.66;94436.81;5075769;28;20444;-79
2022/11/06 04:49:16;;;;;;;25.03;13.30;;;;;;;12.53;96.54;94433.00;5076516;28;20452;-79
2022/11/06 04:51:45;;;;;;;15.50;11.93;;;;;;;12.58;96.33;94438.63;5074999;28;20447;-79
2022/11/06 04:54:14;;;;;;;20.30;13.43;;;;;;;12.53;97.88;94438.25;5074825;28;20487;-79
2022/11/06 04:56:41;;;;;;;15.43;11.83;;;;;;;12.53;98.22;94439.06;5074890;28;20503;-79
2022/11/06 04:59:12;;;;;;;16.13;12.90;;;;;;;12.60;98.09;94442.75;5074713;28;20448;-79
2022/11/06 05:01:39;;;;;;;22.47;13.80;;;;;;;12.66;98.14;94450.00;5055829;28;20857;-79
2022/11/06 05:04:07;;;;;;;21.10;15.20;;;;;;;12.62;98.46;94453.94;5075009;28;20440;-79
2022/11/06 05:06:34;;;;;;;16.20;12.77;;;;;;;12.61;99.34;94456.72;5074639;28;20476;-78
2022/11/06 05:09:00;;;;;;;14.90;13.30;;;;;;;12.59;100.00;94448.97;5074693;28;20844;-78
2022/11/06 05:11:27;;;;;;;17.93;14.00;;;;;;;12.49;100.00;94457.97;5074299;28;20456;-79
2022/11/06 05:13:54;;;;;;;17.40;12.87;;;;;;;12.56;100.00;94469.53;5074298;28;20451;-79
2022/11/06 05:16:21;;;;;;;14.27;12.77;;;;;;;12.58;100.00;94463.13;5074680;28;20444;-79
2022/11/06 05:18:48;;;;;;;23.40;15.33;;;;;;;12.65;100.00;94473.88;5074596;28;20456;-78
2022/11/06 05:24:00;;;;;;;17.30;12.80;;;;;;;12.69;100.00;94480.47;5074204;28;20935;-79
2022/11/06 05:26:27;;;;;;;19.77;14.00;;;;;;;12.66;100.00;94478.16;5074459;28;20885;-79
2022/11/06 05:28:53;;;;;;;18.87;14.27;;;;;;;12.85;100.00;94491.13;5074471;28;20433;-79
2022/11/06 05:31:20;;;;;;;27.53;14.33;;;;;;;12.87;100.00;94491.81;5074647;28;20445;-80
2022/11/06 05:33:47;;;;;;;18.17;14.20;;;;;;;12.99;99.45;94490.56;5074236;28;20453;-80
2022/11/06 05:36:14;;;;;;;25.70;13.87;;;;;;;13.10;99.46;94494.78;5073450;28;20946;-79
2022/11/06 05:38:42;;;;;;;21.37;13.90;;;;;;;13.21;98.63;94493.69;5071671;28;20931;-80
2022/11/06 05:41:09;;;;;;;25.77;16.80;;;;;;;13.35;98.49;94497.59;5055250;28;20493;-80
2022/11/06 05:43:35;;;;;;;20.73;14.73;;;;;;;13.19;97.92;94493.03;5074207;28;20456;-79
2022/11/06 05:46:02;;;;;;;24.80;15.33;;;;;;;13.24;98.16;94509.19;5055314;28;20506;-80
2022/11/06 05:48:29;;;;;;;16.70;14.90;;;;;;;13.19;98.22;94509.66;5074152;28;20499;-79
2022/11/06 05:51:00;;;;;;;24.93;14.93;;;;;;;13.19;99.02;94508.84;5073661;28;20463;-79
2022/11/06 05:53:27;;;;;;;23.80;15.20;;;;;;;13.05;99.88;94512.84;5073678;28;21024;-79
2022/11/06 05:55:55;;;;;;;24.50;14.90;;;;;;;13.18;100.00;94517.72;5073696;28;20445;-79
2022/11/06 05:58:22;;;;;;;25.77;14.70;;;;;;;13.24;99.77;94522.38;5038199;28;20495;-80
2022/11/06 06:00:49;;;;;;;20.80;14.57;;;;;;;13.42;100.00;94524.97;5038202;28;20987;-79
2022/11/06 06:03:16;;;;;;;14.90;13.37;;;;;;;13.46;98.82;94532.41;5073546;28;20527;-78
2022/11/06 06:05:42;;;;;;;23.53;14.50;;;;;;;13.49;97.40;94536.53;5073577;28;20456;-79
2022/11/06 06:08:09;;;;;;;16.70;13.90;;;;;;;13.63;97.49;94534.16;5073670;28;20444;-81
2022/11/06 06:10:40;;;;;;;19.10;13.67;;;;;;;13.46;97.99;94531.56;5073731;28;20476;-79
2022/11/06 06:13:09;;;;;;;30.40;14.10;;;;;;;13.60;97.18;94528.38;5056854;28;20462;-79
2022/11/06 06:15:38;;;;;;;16.63;14.50;;;;;;;13.54;96.75;94537.69;5056624;28;20460;-78
2022/11/06 06:18:05;;;;;;;16.67;12.57;;;;;;;13.71;97.10;94545.72;5053095;28;20449;-78
2022/11/06 06:20:32;;;;;;;19.10;13.37;;;;;;;13.86;95.98;94552.03;5061658;28;20506;-79
2022/11/06 06:22:59;;;;;;;25.10;13.88;;;;;;;14.00;95.35;94554.09;5058873;28;20432;-79
2022/11/06 06:25:27;;;;;;;15.07;13.47;;;;;;;14.10;94.87;94560.03;5066211;28;20219;-78
2022/11/06 06:27:54;;;;;;;17.93;14.07;;;;;;;14.13;92.68;94559.72;5052726;28;20913;-79
2022/11/06 06:30:24;;;;;;;18.30;14.07;;;;;;;14.15;90.60;94555.09;5066748;28;20449;-78
2022/11/06 06:32:51;;;;;;;16.80;13.23;;;;;;;14.16;89.30;94564.69;5052891;28;20544;-78
2022/11/06 06:35:18;;;;;;;16.90;12.97;;;;;;;14.25;88.48;94571.66;5033467;28;20503;-78
2022/11/06 06:37:51;;;;;;;20.23;13.33;;;;;;;14.32;87.55;94571.84;5052698;28;20453;-78
2022/11/06 06:40:18;;;;;;;19.63;12.27;;;;;;;14.36;87.04;94572.34;5072501;28;20532;-79
2022/11/06 06:42:45;;;;;;;14.20;11.67;;;;;;;14.42;86.50;94580.44;5073090;28;20476;-80
2022/11/06 06:45:12;;;;;;;16.47;12.33;;;;;;;14.49;86.36;94585.94;5066795;28;20492;-79
2022/11/06 06:47:40;;;;;;;21.97;13.13;;;;;;;14.59;86.71;94591.06;5056057;28;20453;-80
2022/11/06 06:50:08;;;;;;;16.33;13.50;;;;;;;14.62;85.91;94591.56;5072609;28;20502;-79
2022/11/06 06:52:34;;;;;;;19.60;13.40;;;;;;;14.66;86.42;94584.97;5056111;28;20534;-79
2022/11/06 06:55:01;;;;;;;16.17;13.43;;;;;;;14.73;86.70;94591.25;5076181;28;20523;-79
2022/11/06 06:57:28;;;;;;;17.13;12.27;;;;;;;14.81;85.92;94599.22;5058555;28;20441;-79
2022/11/06 06:59:55;;;;;;;16.83;12.47;;;;;;;14.82;85.25;94600.88;5063654;28;20465;-79
2022/11/06 07:02:21;;;;;;;18.07;12.27;;;;;;;14.81;84.98;94604.50;5065918;28;20476;-79
2022/11/06 07:04:50;;;;;;;21.03;12.67;;;;;;;14.80;84.63;94607.31;5036746;28;20440;-79
2022/11/06 07:07:16;;;;;;;13.97;12.47;;;;;;;14.79;84.50;94611.75;5072193;28;20448;-79
2022/11/06 07:09:43;;;;;;;15.07;12.87;;;;;;;14.78;84.30;94602.19;5071485;28;20448;-79
2022/11/06 07:12:10;;;;;;;18.30;14.10;;;;;;;14.80;84.60;94609.94;5071598;28;20451;-79
2022/11/06 07:14:39;;;;;;;27.30;13.37;;;;;;;14.80;85.03;94613.41;5071631;28;20498;-79
2022/11/06 07:17:06;;;;;;;17.60;11.77;;;;;;;14.81;84.50;94614.25;5071646;28;20498;-79
2022/11/06 07:19:32;;;;;;;20.00;12.40;;;;;;;14.81;84.57;94614.25;5071741;28;20453;-79
2022/11/06 07:22:00;;;;;;;16.30;12.50;;;;;;;14.82;84.24;94621.19;5071685;28;20546;-79
2022/11/06 07:24:27;;;;;;;17.10;13.27;;;;;;;14.86;84.36;94623.31;5071673;28;20425;-79
2022/11/06 07:26:54;;;;;;;22.77;14.03;;;;;;;14.91;84.58;94624.66;5036199;28;20441;-79
2022/11/06 07:29:21;;;;;;;16.57;12.53;;;;;;;14.91;85.47;94627.28;5071530;28;20460;-80
2022/11/06 07:31:47;;;;;;;18.60;12.67;;;;;;;14.85;85.07;94637.53;5072036;28;20453;-79
2022/11/06 07:34:14;;;;;;;24.00;12.17;;;;;;;14.86;84.02;94631.25;5071589;28;20441;-79
2022/11/06 07:36:41;;;;;;;24.37;14.30;;;;;;;14.88;84.64;94624.00;5071866;28;20477;-79
2022/11/06 07:39:09;;;;;;;26.93;15.27;;;;;;;14.92;84.66;94631.59;5071463;28;20953;-79
2022/11/06 07:41:36;;;;;;;25.40;15.07;;;;;;;14.93;84.97;94628.78;5071349;28;20511;-79
2022/11/06 07:44:02;;;;;;;29.27;16.87;;;;;;;14.97;84.61;94631.91;5071418;28;20441;-79
2022/11/06 07:46:29;;;;;;;23.00;13.80;;;;;;;14.99;84.66;94632.56;5035930;28;20446;-79
2022/11/06 07:48:56;;;;;;;25.73;15.40;;;;;;;14.99;84.33;94635.22;5071824;28;20461;-79
2022/11/06 07:51:23;;;;;;;21.73;15.13;;;;;;;15.00;84.52;94631.59;5035763;28;20853;-79
2022/11/06 07:53:49;;;;;;;22.23;15.00;;;;;;;14.65;87.34;94636.16;5071179;28;20911;-79
2022/11/06 07:56:18;;;;;;;24.17;16.70;;;;;;;14.78;88.00;94641.81;5071304;28;20453;-79
2022/11/06 07:58:44;;;;;;;26.67;18.83;;;;;;;14.70;90.72;94633.84;5071346;28;20445;-79
2022/11/06 08:01:15;;;;;;;35.37;19.70;;;;;;;14.77;91.53;94634.06;5071484;28;20480;-79
2022/11/06 08:03:42;;;;;;;26.27;17.40;;;;;;;14.64;92.40;94628.38;5072394;28;20449;-79
2022/11/06 08:06:09;;;;;;;26.43;20.37;;;;;;;14.81;92.20;94635.38;5074893;28;20523;-79
2022/11/06 08:08:36;;;;;;;25.57;19.10;;;;;;;14.93;92.06;94638.53;5074903;28;20925;-79
2022/11/06 08:11:03;;;;;;;25.70;20.83;;;;;;;15.00;92.18;94644.78;5074907;28;20466;-80
2022/11/06 08:13:32;;;;;;;28.90;21.47;;;;;;;15.05;91.69;94637.22;5075103;28;20444;-79
2022/11/06 08:15:59;;;;;;;37.80;22.90;;;;;;;15.05;92.16;94637.22;5075167;28;20490;-79
2022/11/06 08:18:26;;;;;;;30.30;21.90;;;;;;;15.08;91.81;94647.47;5074675;28;20958;-79
2022/11/06 08:20:54;;;;;;;26.33;20.13;;;;;;;15.16;91.80;94650.13;5074700;28;20441;-79
2022/11/06 08:23:21;;;;;;;32.10;21.57;;;;;;;15.25;92.63;94649.13;5074432;28;20545;-79
2022/11/06 08:25:47;;;;;;;30.67;21.70;;;;;;;15.30;92.70;94657.38;5074514;28;20454;-79
2022/11/06 08:28:14;;;;;;;29.77;22.27;;;;;;;15.35;92.89;94652.44;5074296;28;20444;-79
2022/11/06 08:30:42;;;;;;;37.80;21.30;;;;;;;15.37;94.28;94658.41;5039098;28;20453;-79
2022/11/06 08:33:09;;;;;;;31.40;21.17;;;;;;;15.35;94.47;94652.44;5074305;28;20437;-79
2022/11/06 08:35:37;;;;;;;28.63;20.63;;;;;;;15.43;94.75;94652.44;5074454;28;20449;-79
2022/11/06 08:38:04;;;;;;;36.17;25.90;;;;;;;15.47;95.75;94650.28;5074477;28;20439;-79
2022/11/06 08:40:33;;;;;;;37.47;26.53;;;;;;;15.50;96.13;94653.44;5074282;28;20946;-79
2022/11/06 08:43:01;;;;;;;45.77;28.10;;;;;;;15.50;96.13;94660.53;5074261;28;20487;-79
2022/11/06 08:45:28;;;;;;;41.43;24.70;;;;;;;15.43;96.27;94663.03;5074216;28;20456;-79
2022/11/06 08:48:01;;;;;;;37.00;24.90;;;;;;;15.45;96.24;94668.16;5074228;28;20438;-79
2022/11/06 08:50:28;;;;;;;49.37;26.40;;;;;;;15.47;96.47;94664.34;5074519;28;20746;-79
2022/11/06 08:52:58;;;;;;;41.70;28.30;;;;;;;15.49;97.26;94666.81;5073899;28;20469;-78
2022/11/06 08:55:25;;;;;;;41.63;25.70;;;;;;;15.47;97.90;94669.63;5074175;28;20507;-79
2022/11/06 08:57:57;;;;;;;45.53;26.00;;;;;;;15.32;98.36;94671.25;5074271;28;20448;-79
2022/11/06 09:00:24;;;;;;;38.50;24.90;;;;;;;15.41;98.83;94674.75;5074240;28;20434;-79
2022/11/06 09:02:51;;;;;;;51.40;24.47;;;;;;;15.44;98.52;94672.59;5071617;28;20485;-78
2022/11/06 09:05:19;;;;;;;24.73;19.87;;;;;;;15.32;96.94;94681.00;5054484;28;20845;-78
2022/11/06 09:07:45;;;;;;;24.43;17.80;;;;;;;15.37;96.64;94671.63;5065827;28;20457;-79
2022/11/06 09:10:12;;;;;;;28.80;16.60;;;;;;;15.32;95.57;94676.56;5066532;28;20454;-78
2022/11/06 09:12:39;;;;;;;25.60;18.33;;;;;;;15.46;96.26;94675.09;5052221;28;20438;-80
2022/11/06 09:15:07;;;;;;;22.03;16.90;;;;;;;15.55;96.82;94681.19;5054097;28;20289;-78
2022/11/06 09:17:34;;;;;;;17.97;14.00;;;;;;;15.49;95.34;94678.22;5054404;28;20537;-79
2022/11/06 09:20:00;;;;;;;17.37;14.40;;;;;;;15.53;95.35;94685.81;5054555;28;20452;-79
2022/11/06 09:22:28;;;;;;;22.50;14.93;;;;;;;15.53;95.30;94688.47;5054191;28;20492;-76
2022/11/06 09:24:55;;;;;;;16.93;14.57;;;;;;;15.48;95.85;94687.16;5036036;28;20455;-77
2022/11/06 09:27:22;;;;;;;25.30;14.90;;;;;;;15.45;95.85;94684.84;5019363;28;20446;-78
2022/11/06 09:29:49;;;;;;;20.60;15.50;;;;;;;15.49;95.79;94688.81;5054770;28;20465;-78
2022/11/06 09:32:17;;;;;;;18.10;15.07;;;;;;;15.44;94.62;94685.00;5054133;28;20495;-77
2022/11/06 09:34:44;;;;;;;19.20;14.90;;;;;;;15.48;95.00;94681.88;5054052;28;20501;-78
2022/11/06 09:37:11;;;;;;;17.43;14.53;;;;;;;15.56;96.62;94681.03;5054127;28;20457;-78
2022/11/06 09:39:39;;;;;;;24.23;16.73;;;;;;;15.62;96.35;94682.25;5053869;28;20928;-78
2022/11/06 09:42:11;;;;;;;23.67;14.80;;;;;;;15.67;95.73;94685.22;5053822;28;20485;-77
2022/11/06 09:44:51;;;;;;;17.40;15.27;;;;;;;15.71;95.86;94681.25;5054498;28;20452;-77
2022/11/06 09:47:21;;;;;;;23.70;18.70;;;;;;;15.73;95.41;94679.25;5053832;28;20454;-77
2022/11/06 09:49:50;;;;;;;28.73;18.57;;;;;;;15.75;95.35;94680.72;5053968;28;20443;-78
2022/11/06 09:52:26;;;;;;;15.83;14.07;;;;;;;15.74;93.64;94686.19;5053604;28;20473;-78
2022/11/06 09:55:00;;;;;;;20.43;14.77;;;;;;;15.74;92.57;94680.91;5053767;28;20779;-77
2022/11/06 09:57:34;;;;;;;16.53;14.77;;;;;;;15.76;91.12;94684.19;5053580;28;20785;-78
2022/11/06 10:00:03;;;;;;;16.80;13.43;;;;;;;15.76;92.43;94678.91;5053836;28;20448;-78
2022/11/06 10:02:35;;;;;;;19.17;14.40;;;;;;;15.75;91.70;94678.09;5053729;28;20847;-78
2022/11/06 10:05:08;;;;;;;16.87;13.33;;;;;;;15.76;91.84;94669.16;5053539;28;20450;-77
2022/11/06 10:07:38;;;;;;;17.07;14.40;;;;;;;15.77;91.52;94683.22;5053351;28;20452;-77
2022/11/06 10:10:11;;;;;;;20.60;13.57;;;;;;;15.78;91.75;94679.56;5053841;28;20476;-77
2022/11/06 10:12:54;;;;;;;18.50;14.57;;;;;;;15.78;92.00;94683.03;5035406;28;20864;-77
2022/11/06 10:15:26;;;;;;;19.63;14.67;;;;;;;15.77;91.70;94677.91;5053168;28;20454;-76
2022/11/06 10:18:01;;;;;;;32.90;14.17;;;;;;;15.77;92.29;94677.91;5053073;28;20443;-77
2022/11/06 10:20:31;;;;;;;17.13;14.03;;;;;;;15.64;92.88;94686.38;5053317;28;20452;-77
2022/11/06 10:23:05;;;;;;;13.93;10.97;;;;;;;15.49;92.79;94680.88;5052969;28;20980;-77
2022/11/06 10:25:51;;;;;;;12.77;9.60;;;;;;;15.37;92.60;94690.13;5052975;28;20469;-77
2022/11/06 10:28:40;;;;;;;11.47;10.37;;;;;;;15.41;92.84;94685.34;5063451;28;20442;-76
2022/11/06 10:31:14;;;;;;;11.17;8.37;;;;;;;15.17;94.33;94678.19;5020841;28;20442;-79
2022/11/06 10:33:54;;;;;;;9.87;8.50;;;;;;;15.23;94.87;94682.81;5053017;28;20892;-76
2022/11/06 10:36:23;;;;;;;9.13;7.67;;;;;;;15.14;95.21;94675.88;5053110;28;20496;-77
2022/11/06 10:38:52;;;;;;;13.80;8.10;;;;;;;14.99;94.75;94685.44;5053013;28;20445;-78
2022/11/06 10:41:24;;;;;;;9.80;8.03;;;;;;;14.83;96.16;94673.03;5052938;28;20464;-78
2022/11/06 10:43:55;;;;;;;9.37;8.47;;;;;;;14.80;96.53;94682.09;5052599;28;20485;-76
2022/11/06 10:46:28;;;;;;;7.30;6.47;;;;;;;14.69;96.81;94685.00;5052719;28;20457;-76
2022/11/06 10:48:58;;;;;;;14.20;8.50;;;;;;;14.40;99.50;94684.53;5055145;28;20854;-76
2022/11/06 10:51:44;;;;;;;8.30;7.43;;;;;;;14.50;100.00;94685.28;5073093;28;20528;-77
2022/11/06 10:54:25;;;;;;;9.03;7.57;;;;;;;14.53;100.00;94687.59;5072561;28;20504;-76
2022/11/06 10:57:11;;;;;;;7.23;6.63;;;;;;;14.49;99.82;94683.63;5072511;28;20457;-77
2022/11/06 10:59:38;;;;;;;7.53;6.77;;;;;;;14.50;100.00;94685.28;5072095;28;20572;-76
2022/11/06 11:02:20;;;;;;;11.30;6.87;;;;;;;14.46;99.53;94683.97;5072866;28;20488;-76
2022/11/06 11:04:46;;;;;;;6.60;6.00;;;;;;;14.39;100.00;94681.06;5072188;28;20514;-77
2022/11/06 11:07:15;;;;;;;6.57;6.07;;;;;;;14.30;100.00;94682.03;5053190;28;20449;-76
2022/11/06 11:09:44;;;;;;;9.07;8.13;;;;;;;14.21;100.00;94680.34;5071424;28;20462;-77
2022/11/06 11:12:24;;;;;;;8.13;7.40;;;;;;;14.14;100.00;94685.41;5068598;28;20491;-76
2022/11/06 11:15:14;;;;;;;7.20;6.50;;;;;;;14.29;100.00;94676.91;5071169;28;20769;-76
2022/11/06 11:18:04;;;;;;;8.60;7.50;;;;;;;14.26;99.86;94676.25;5009971;28;20498;-76
2022/11/06 11:20:33;;;;;;;14.30;7.37;;;;;;;14.38;100.00;94675.94;5009777;28;20455;-76
2022/11/06 11:23:13;;;;;;;10.47;7.77;;;;;;;14.46;100.00;94673.41;5009380;28;20487;-76
2022/11/06 11:25:41;;;;;;;8.37;7.00;;;;;;;14.52;99.55;94678.03;5009688;28;20859;-76
2022/11/06 11:28:27;;;;;;;9.07;8.17;;;;;;;14.40;98.82;94671.34;4961432;28;20455;-76
2022/11/06 11:30:58;;;;;;;8.90;6.90;;;;;;;14.45;98.20;94671.72;5010026;28;20443;-76
2022/11/06 11:33:26;;;;;;;10.50;6.50;;;;;;;14.53;96.82;94677.03;5009784;28;20467;-76
2022/11/06 11:35:54;;;;;;;9.60;7.63;;;;;;;14.60;96.72;94672.78;5009476;28;20546;-76
2022/11/06 11:38:21;;;;;;;7.57;6.83;;;;;;;14.57;95.33;94675.75;5011515;28;20454;-77
2022/11/06 11:40:48;;;;;;;7.60;6.03;;;;;;;14.71;95.70;94683.03;5013495;28;20946;-76
2022/11/06 11:43:22;;;;;;;6.20;5.60;;;;;;;14.59;93.36;94679.03;5013451;28;20483;-76
2022/11/06 11:46:03;;;;;;;6.17;5.60;;;;;;;14.60;92.94;94672.78;5013491;28;20522;-76
2022/11/06 11:48:42;;;;;;;6.20;5.60;;;;;;;14.64;90.94;94679.38;5013267;28;20455;-76